Time;durP1;ratioP1;P1;durP2;ratioP2;P2;SDS_P1;SDS_P2;PMS_P1;PMS_P2;Temp;Humidity;BMP_temperature;BMP_pressure;BME280_temperature;BME280_humidity;BME280_pressure;Samples;Min_cycle;Max_cycle;Signal;HPM_P1;HPM_P2
2022/05/01 00:02:00;;;;;;;16.98;11.70;;;6.80;99.90;;;;;;5088387;28;20064;-77
2022/05/01 00:04:25;;;;;;;16.90;11.55;;;6.70;99.90;;;;;;5087694;28;20487;-77
2022/05/01 00:06:51;;;;;;;18.77;12.20;;;6.70;99.90;;;;;;5090238;28;20043;-77
2022/05/01 00:09:17;;;;;;;15.35;11.13;;;6.60;99.90;;;;;;5089164;28;20075;-77
2022/05/01 00:11:42;;;;;;;17.70;11.88;;;6.60;99.90;;;;;;5090283;28;20055;-77
2022/05/01 00:14:08;;;;;;;17.60;12.57;;;6.60;99.90;;;;;;5088540;28;20097;-77
2022/05/01 00:16:34;;;;;;;18.45;12.73;;;6.50;99.90;;;;;;5089433;28;20047;-77
2022/05/01 00:19:00;;;;;;;17.63;11.52;;;6.50;99.90;;;;;;5083520;28;20040;-77
2022/05/01 00:21:25;;;;;;;15.65;11.10;;;6.40;99.90;;;;;;5089852;28;20104;-77
2022/05/01 00:23:51;;;;;;;18.63;11.20;;;6.40;99.90;;;;;;5083985;28;20040;-77
2022/05/01 00:26:17;;;;;;;18.30;11.48;;;6.30;99.90;;;;;;5083242;28;20040;-77
2022/05/01 00:28:43;;;;;;;17.52;11.15;;;6.20;99.90;;;;;;5089143;28;20052;-77
2022/05/01 00:31:09;;;;;;;16.38;10.82;;;6.30;99.90;;;;;;5088763;28;20044;-77
2022/05/01 00:36:25;;;;;;;17.67;11.35;;;6.20;99.90;;;;;;5081819;28;20080;-77
2022/05/01 00:39:00;;;;;;;17.83;11.27;;;6.20;99.90;;;;;;5088885;28;20039;-77
2022/05/01 00:41:27;;;;;;;17.55;11.70;;;6.20;99.90;;;;;;5088617;28;20476;-77
2022/05/01 00:44:01;;;;;;;19.77;11.48;;;6.20;99.90;;;;;;5089187;28;20040;-77
2022/05/01 00:46:27;;;;;;;16.20;11.48;;;6.10;99.90;;;;;;5088866;28;20142;-77
2022/05/01 00:48:53;;;;;;;15.15;10.70;;;6.10;99.90;;;;;;5085676;28;20085;-77
2022/05/01 00:51:20;;;;;;;16.90;12.10;;;6.00;99.90;;;;;;5087285;28;20044;-77
2022/05/01 00:53:50;;;;;;;21.98;14.43;;;6.00;99.90;;;;;;5088935;28;20047;-77
2022/05/01 00:56:16;;;;;;;19.40;13.32;;;6.00;99.90;;;;;;5087720;28;20078;-77
2022/05/01 00:58:43;;;;;;;18.17;11.90;;;5.90;99.90;;;;;;5087157;28;20560;-77
2022/05/01 01:01:12;;;;;;;18.00;12.13;;;5.90;99.90;;;;;;5087526;28;20138;-77
2022/05/01 01:03:37;;;;;;;18.83;11.60;;;5.80;99.90;;;;;;5089051;28;20494;-77
2022/05/01 01:06:03;;;;;;;19.60;11.63;;;5.80;99.90;;;;;;5085657;28;20040;-77
2022/05/01 01:08:29;;;;;;;18.98;11.57;;;5.70;99.90;;;;;;5087707;28;20044;-77
2022/05/01 01:10:55;;;;;;;19.08;12.50;;;5.70;99.90;;;;;;5083077;28;20457;-77
2022/05/01 01:13:27;;;;;;;19.65;12.15;;;5.70;99.90;;;;;;5085389;28;20097;-77
2022/05/01 01:15:54;;;;;;;19.08;12.50;;;5.70;99.90;;;;;;5080640;28;20039;-77
2022/05/01 01:18:21;;;;;;;16.50;11.00;;;5.60;99.90;;;;;;5085617;28;20093;-77
2022/05/01 01:20:47;;;;;;;15.43;10.45;;;5.50;99.90;;;;;;5089042;28;20080;-77
2022/05/01 01:23:14;;;;;;;17.13;11.43;;;5.60;99.90;;;;;;5081903;28;20086;-77
2022/05/01 01:25:40;;;;;;;17.60;11.80;;;5.50;99.90;;;;;;5087260;28;20063;-76
2022/05/01 01:28:07;;;;;;;19.45;12.32;;;5.50;99.90;;;;;;5058843;28;20048;-76
2022/05/01 01:33:20;;;;;;;15.95;11.27;;;5.40;99.90;;;;;;5084772;28;20048;-77
2022/05/01 01:35:49;;;;;;;16.95;11.57;;;5.30;99.90;;;;;;5088362;28;20440;-77
2022/05/01 01:38:16;;;;;;;17.42;10.63;;;5.20;99.90;;;;;;5082913;28;20080;-77
2022/05/01 01:40:45;;;;;;;17.15;12.07;;;5.20;99.90;;;;;;5082579;28;20054;-76
2022/05/01 01:43:12;;;;;;;18.60;12.32;;;5.20;99.90;;;;;;5079284;28;20056;-76
2022/05/01 01:45:38;;;;;;;19.65;13.02;;;5.20;99.90;;;;;;5087936;28;20115;-77
2022/05/01 01:48:10;;;;;;;15.77;11.10;;;5.10;99.90;;;;;;5081962;28;20112;-77
2022/05/01 01:50:36;;;;;;;17.70;12.30;;;5.10;99.90;;;;;;5082112;28;20403;-77
2022/05/01 01:53:02;;;;;;;18.67;11.75;;;5.10;99.90;;;;;;5081959;28;20044;-77
2022/05/01 01:55:31;;;;;;;17.65;11.75;;;5.10;99.90;;;;;;5077084;28;20056;-77
2022/05/01 01:57:57;;;;;;;17.15;12.00;;;5.00;99.90;;;;;;5088014;28;20075;-76
2022/05/01 02:00:23;;;;;;;19.10;12.18;;;5.00;99.90;;;;;;5087207;28;20036;-76
2022/05/01 02:02:49;;;;;;;16.90;11.90;;;4.90;99.90;;;;;;5082473;28;20097;-77
2022/05/01 02:05:15;;;;;;;16.77;11.23;;;4.90;99.90;;;;;;5086371;28;20036;-76
2022/05/01 02:07:40;;;;;;;19.77;11.52;;;4.80;99.90;;;;;;5085782;28;20040;-76
2022/05/01 02:10:06;;;;;;;17.50;12.00;;;4.80;99.90;;;;;;5085113;28;20465;-76
2022/05/01 02:12:33;;;;;;;19.17;12.95;;;4.80;99.90;;;;;;5087844;28;20062;-76
2022/05/01 02:15:00;;;;;;;17.63;11.77;;;4.70;99.90;;;;;;5098246;28;20237;-76
2022/05/01 02:17:25;;;;;;;18.55;12.25;;;4.70;99.90;;;;;;5082110;28;20036;-77
2022/05/01 02:19:52;;;;;;;19.52;11.63;;;4.70;99.90;;;;;;5083003;28;20062;-77
2022/05/01 02:22:21;;;;;;;16.80;11.50;;;4.60;99.90;;;;;;5083466;28;20407;-77
2022/05/01 02:24:47;;;;;;;22.05;13.15;;;4.80;99.90;;;;;;5086688;28;20040;-76
2022/05/01 02:27:12;;;;;;;19.13;12.32;;;4.60;99.90;;;;;;5083846;28;20044;-76
2022/05/01 02:29:42;;;;;;;19.15;12.32;;;4.60;99.90;;;;;;5078281;28;20081;-76
2022/05/01 02:32:07;;;;;;;20.98;13.07;;;4.60;99.90;;;;;;5084649;28;20139;-76
2022/05/01 02:34:33;;;;;;;19.00;12.57;;;4.50;99.90;;;;;;5081711;28;20552;-76
2022/05/01 02:36:59;;;;;;;16.60;11.65;;;4.40;99.90;;;;;;5085159;28;20152;-76
2022/05/01 02:39:25;;;;;;;17.45;11.75;;;4.50;99.90;;;;;;5086604;28;20491;-77
2022/05/01 02:41:52;;;;;;;17.02;11.63;;;4.50;99.90;;;;;;5087749;28;20093;-77
2022/05/01 02:44:17;;;;;;;23.23;11.95;;;4.50;99.90;;;;;;5073337;28;20056;-77
2022/05/01 02:46:43;;;;;;;19.23;11.95;;;4.50;99.90;;;;;;5087629;28;20028;-76
2022/05/01 02:49:10;;;;;;;17.15;12.00;;;4.50;99.90;;;;;;5082918;28;20052;-76
2022/05/01 02:51:36;;;;;;;17.13;11.20;;;4.50;99.90;;;;;;5091224;28;20055;-76
2022/05/01 02:54:04;;;;;;;17.55;11.88;;;4.50;99.90;;;;;;5091584;28;20060;-77
2022/05/01 02:56:30;;;;;;;19.08;11.52;;;4.50;99.90;;;;;;5091456;28;20047;-76
2022/05/01 02:59:00;;;;;;;18.75;12.48;;;4.40;99.90;;;;;;5089871;28;20086;-76
2022/05/01 03:01:26;;;;;;;19.35;12.38;;;4.40;99.90;;;;;;5088004;28;20484;-77
2022/05/01 03:03:51;;;;;;;17.95;11.27;;;4.40;99.90;;;;;;5087674;28;20051;-76
2022/05/01 03:06:17;;;;;;;18.08;12.55;;;4.60;99.90;;;;;;5088197;28;20086;-77
2022/05/01 03:08:44;;;;;;;19.50;12.57;;;4.40;99.90;;;;;;5090801;28;20044;-76
2022/05/01 03:11:10;;;;;;;18.42;12.10;;;4.40;99.90;;;;;;5087304;28;20151;-76
2022/05/01 03:13:36;;;;;;;19.70;13.32;;;4.30;99.90;;;;;;5087055;28;20131;-77
2022/05/01 03:16:03;;;;;;;18.75;12.68;;;4.40;99.90;;;;;;5079791;28;20041;-76
2022/05/01 03:23:57;;;;;;;18.77;13.02;;;4.30;99.90;;;;;;5081778;28;20507;-76
2022/05/01 03:26:23;;;;;;;22.23;14.10;;;4.30;99.90;;;;;;5089044;28;20161;-76
2022/05/01 03:28:48;;;;;;;19.90;13.52;;;4.20;99.90;;;;;;5082059;28;20054;-77
2022/05/01 03:31:16;;;;;;;17.52;13.10;;;4.20;99.90;;;;;;5102005;28;20036;-77
2022/05/01 03:33:42;;;;;;;22.70;13.40;;;4.20;99.90;;;;;;5071902;28;20412;-77
2022/05/01 03:36:09;;;;;;;20.42;13.07;;;4.30;99.90;;;;;;5090630;28;20044;-76
2022/05/01 03:38:40;;;;;;;19.77;13.15;;;4.20;99.90;;;;;;5089319;28;20563;-77
2022/05/01 03:41:07;;;;;;;23.13;14.05;;;4.20;99.90;;;;;;5090573;28;20044;-76
2022/05/01 03:43:34;;;;;;;19.92;12.90;;;4.10;99.90;;;;;;5087746;28;20509;-76
2022/05/01 03:46:04;;;;;;;19.95;14.32;;;4.10;99.90;;;;;;5086680;28;20438;-76
2022/05/01 03:48:30;;;;;;;19.60;13.48;;;4.10;99.90;;;;;;5066685;28;20056;-76
2022/05/01 03:50:55;;;;;;;20.08;13.23;;;4.10;99.90;;;;;;5090446;28;20541;-76
2022/05/01 03:53:23;;;;;;;21.85;13.32;;;4.10;99.90;;;;;;5089885;28;20044;-77
2022/05/01 03:55:52;;;;;;;21.10;12.75;;;4.10;99.90;;;;;;5090017;28;20048;-76
2022/05/01 03:58:19;;;;;;;18.85;12.63;;;4.10;99.90;;;;;;5086261;28;20047;-76
2022/05/01 04:00:47;;;;;;;18.13;12.13;;;4.00;99.90;;;;;;5097726;28;20122;-76
2022/05/01 04:03:14;;;;;;;18.20;12.57;;;4.00;99.90;;;;;;5089073;28;20135;-76
2022/05/01 04:05:41;;;;;;;21.40;13.48;;;3.90;99.90;;;;;;5089131;28;20032;-77
2022/05/01 04:08:08;;;;;;;19.15;12.63;;;3.90;99.90;;;;;;5089582;28;20048;-76
2022/05/01 04:10:40;;;;;;;19.58;12.38;;;3.90;99.90;;;;;;5098833;28;20056;-77
2022/05/01 04:13:08;;;;;;;19.30;12.77;;;3.80;99.90;;;;;;5087320;28;20450;-76
2022/05/01 04:15:34;;;;;;;21.23;13.45;;;4.10;99.90;;;;;;5082884;28;20039;-76
2022/05/01 04:18:02;;;;;;;23.55;14.07;;;3.70;99.90;;;;;;5091555;28;20105;-76
2022/05/01 04:20:28;;;;;;;19.05;12.82;;;3.70;99.90;;;;;;5087839;28;20143;-76
2022/05/01 04:22:54;;;;;;;20.38;12.88;;;3.80;99.90;;;;;;5065091;28;20040;-76
2022/05/01 04:25:29;;;;;;;22.98;13.60;;;3.70;99.90;;;;;;5085247;28;20037;-76
2022/05/01 04:28:04;;;;;;;18.98;13.38;;;3.80;99.90;;;;;;5103492;28;20040;-76
2022/05/01 04:30:33;;;;;;;18.65;12.90;;;3.80;99.90;;;;;;5085003;28;20067;-76
2022/05/01 04:33:02;;;;;;;22.67;13.52;;;3.70;99.90;;;;;;5084714;28;20510;-76
2022/05/01 04:35:34;;;;;;;19.67;13.85;;;3.70;99.90;;;;;;5087572;28;20398;-76
2022/05/01 04:38:04;;;;;;;20.05;12.90;;;3.70;99.90;;;;;;5087825;28;20044;-76
2022/05/01 04:40:35;;;;;;;20.20;13.10;;;3.70;99.90;;;;;;5087975;28;20083;-80
2022/05/01 04:43:09;;;;;;;20.02;13.55;;;3.70;99.90;;;;;;5083650;28;20089;-77
2022/05/01 04:45:41;;;;;;;19.08;12.88;;;3.70;99.90;;;;;;5081266;28;20047;-76
2022/05/01 04:48:08;;;;;;;20.42;13.68;;;3.70;99.90;;;;;;5090141;28;20044;-76
2022/05/01 04:50:35;;;;;;;18.67;12.45;;;3.60;99.90;;;;;;5086766;28;20547;-77
2022/05/01 04:53:03;;;;;;;18.92;12.85;;;3.60;99.90;;;;;;5100112;28;20119;-76
2022/05/01 04:55:30;;;;;;;18.70;12.10;;;3.60;99.90;;;;;;5094116;28;20059;-76
2022/05/01 04:57:57;;;;;;;20.60;12.98;;;3.50;99.90;;;;;;5082436;28;20085;-76
2022/05/01 05:00:23;;;;;;;17.70;12.07;;;3.60;99.90;;;;;;5079504;28;20079;-77
2022/05/01 05:02:51;;;;;;;19.90;13.65;;;3.60;99.90;;;;;;5084308;28;20043;-77
2022/05/01 05:05:17;;;;;;;16.67;11.57;;;3.60;99.90;;;;;;5087902;28;20503;-78
2022/05/01 05:07:43;;;;;;;18.33;12.95;;;3.60;99.90;;;;;;5084496;28;20051;-78
2022/05/01 05:10:09;;;;;;;17.30;12.07;;;3.70;99.90;;;;;;5085597;28;20036;-77
2022/05/01 05:12:36;;;;;;;18.40;12.90;;;3.70;99.90;;;;;;5090101;28;20044;-76
2022/05/01 05:15:08;;;;;;;17.55;12.07;;;3.80;99.90;;;;;;5093072;28;20395;-78
2022/05/01 05:17:35;;;;;;;17.45;12.23;;;3.80;99.90;;;;;;5089664;28;20059;-77
2022/05/01 05:20:01;;;;;;;15.63;11.20;;;3.90;99.90;;;;;;5087780;28;20040;-77
2022/05/01 05:22:27;;;;;;;16.70;11.88;;;3.90;99.90;;;;;;5096470;28;20039;-77
2022/05/01 05:24:53;;;;;;;16.48;11.63;;;4.10;99.90;;;;;;5084191;28;20094;-77
2022/05/01 05:27:21;;;;;;;16.10;12.13;;;4.00;99.90;;;;;;5090962;28;20052;-77
2022/05/01 05:29:49;;;;;;;16.42;12.35;;;4.10;99.90;;;;;;5086604;28;20035;-77
2022/05/01 05:32:16;;;;;;;16.42;12.82;;;4.20;99.90;;;;;;5080301;28;20044;-77
2022/05/01 05:34:41;;;;;;;17.92;12.80;;;4.20;99.90;;;;;;5086326;28;20456;-78
2022/05/01 05:37:07;;;;;;;19.23;13.73;;;4.30;99.90;;;;;;5083356;28;20139;-77
2022/05/01 05:39:33;;;;;;;18.00;12.32;;;4.30;99.90;;;;;;5082742;28;20052;-77
2022/05/01 05:41:58;;;;;;;17.98;13.60;;;4.40;99.90;;;;;;5078471;28;20128;-77
2022/05/01 05:44:24;;;;;;;20.05;13.30;;;4.80;99.90;;;;;;5086609;28;20093;-79
2022/05/01 05:46:50;;;;;;;20.52;14.50;;;4.60;99.90;;;;;;5086160;28;20044;-77
2022/05/01 05:49:15;;;;;;;22.23;15.10;;;4.60;99.90;;;;;;5085029;28;20048;-78
2022/05/01 05:51:41;;;;;;;20.60;15.50;;;4.70;99.90;;;;;;5082189;28;20047;-78
2022/05/01 05:54:07;;;;;;;20.33;14.63;;;4.80;99.90;;;;;;5084709;28;20052;-78
2022/05/01 05:56:33;;;;;;;22.52;15.48;;;4.80;99.90;;;;;;5090883;28;20044;-78
2022/05/01 05:58:59;;;;;;;21.80;15.90;;;4.90;99.90;;;;;;5102018;28;20040;-78
2022/05/01 06:01:26;;;;;;;23.77;16.05;;;5.00;99.90;;;;;;5085394;28;20432;-79
2022/05/01 06:03:52;;;;;;;22.58;15.73;;;5.00;99.90;;;;;;5083780;28;20066;-77
2022/05/01 06:06:18;;;;;;;22.48;15.95;;;5.10;99.90;;;;;;5088435;28;20036;-79
2022/05/01 06:08:44;;;;;;;24.98;15.85;;;5.10;99.90;;;;;;5087700;28;20488;-80
2022/05/01 06:11:10;;;;;;;21.10;14.45;;;5.20;99.90;;;;;;5087238;28;20042;-79
2022/05/01 06:13:36;;;;;;;21.42;15.27;;;5.30;99.90;;;;;;5090275;28;20044;-81
2022/05/01 06:16:03;;;;;;;22.42;15.07;;;5.30;99.90;;;;;;5091946;28;20044;-81
2022/05/01 06:18:29;;;;;;;22.77;15.57;;;5.40;99.90;;;;;;5090748;28;20514;-81
2022/05/01 06:20:54;;;;;;;20.50;13.95;;;5.50;99.90;;;;;;5087214;28;20036;-80
2022/05/01 06:23:21;;;;;;;19.40;13.02;;;5.60;99.90;;;;;;5085925;28;20055;-80
2022/05/01 06:25:47;;;;;;;20.88;13.77;;;5.70;99.90;;;;;;5086720;28;20044;-80
2022/05/01 06:28:14;;;;;;;19.55;13.27;;;5.80;99.90;;;;;;5084886;28;20044;-79
2022/05/01 06:30:43;;;;;;;20.15;13.35;;;5.90;99.90;;;;;;5105255;28;20059;-81
2022/05/01 06:33:12;;;;;;;23.15;14.07;;;6.00;99.90;;;;;;5090641;28;20052;-79
2022/05/01 06:35:38;;;;;;;22.33;13.88;;;6.10;99.90;;;;;;5087708;28;20059;-80
2022/05/01 06:38:04;;;;;;;19.00;12.73;;;6.20;99.90;;;;;;5085479;28;20050;-78
2022/05/01 06:40:30;;;;;;;20.48;13.60;;;6.30;99.90;;;;;;5089447;28;20040;-79
2022/05/01 06:42:56;;;;;;;18.00;13.70;;;6.40;99.90;;;;;;5089681;28;20629;-79
2022/05/01 06:45:21;;;;;;;22.27;13.85;;;6.40;99.90;;;;;;5083770;28;20051;-80
2022/05/01 06:47:47;;;;;;;20.15;12.93;;;6.50;99.90;;;;;;5090734;28;20132;-78
2022/05/01 06:50:14;;;;;;;19.48;12.23;;;6.60;99.90;;;;;;5087449;28;20115;-83
2022/05/01 06:52:39;;;;;;;17.52;12.70;;;7.50;99.90;;;;;;5089252;28;20056;-80
2022/05/01 06:55:05;;;;;;;17.42;11.43;;;6.80;99.90;;;;;;5080124;28;20059;-81
2022/05/01 06:57:31;;;;;;;16.88;11.20;;;6.90;99.90;;;;;;5081075;28;20047;-80
2022/05/01 06:59:58;;;;;;;17.20;10.38;;;7.00;99.90;;;;;;5086749;28;20540;-80
2022/05/01 07:02:24;;;;;;;15.50;10.27;;;7.10;99.90;;;;;;5086997;28;20036;-80
2022/05/01 07:04:49;;;;;;;15.73;10.82;;;7.20;99.90;;;;;;5086491;28;21353;-80
2022/05/01 07:07:15;;;;;;;20.48;10.13;;;7.70;99.90;;;;;;5087594;28;20384;-81
2022/05/01 07:09:41;;;;;;;17.33;10.82;;;7.40;99.90;;;;;;5086391;28;20060;-81
2022/05/01 07:12:10;;;;;;;13.48;9.98;;;7.40;99.90;;;;;;5087206;28;20062;-80
2022/05/01 07:14:39;;;;;;;15.80;9.45;;;7.50;99.90;;;;;;5087148;28;20040;-82
2022/05/01 07:17:05;;;;;;;13.85;9.40;;;7.70;99.90;;;;;;5101538;28;20048;-80
2022/05/01 07:19:31;;;;;;;16.05;9.50;;;7.80;99.90;;;;;;5087160;28;20078;-80
2022/05/01 07:21:57;;;;;;;14.80;8.95;;;8.60;99.90;;;;;;5083430;28;20070;-79
2022/05/01 07:24:23;;;;;;;12.90;7.95;;;8.10;99.90;;;;;;5079841;28;20044;-79
2022/05/01 07:26:48;;;;;;;15.60;6.95;;;8.20;99.90;;;;;;5084055;28;20057;-80
2022/05/01 07:29:14;;;;;;;12.77;7.72;;;8.40;99.90;;;;;;5086147;28;20052;-78
2022/05/01 07:31:42;;;;;;;11.43;6.13;;;8.50;99.90;;;;;;5082440;28;20032;-79
2022/05/01 07:34:09;;;;;;;9.93;6.88;;;8.70;99.90;;;;;;5087463;28;20085;-79
2022/05/01 07:36:34;;;;;;;12.00;7.95;;;8.80;99.90;;;;;;5089020;28;20547;-79
2022/05/01 07:39:00;;;;;;;13.25;7.13;;;8.90;99.90;;;;;;5089919;28;20130;-78
2022/05/01 07:41:27;;;;;;;12.85;7.38;;;9.10;99.90;;;;;;5106980;28;20051;-78
2022/05/01 07:43:55;;;;;;;11.63;7.38;;;9.30;99.90;;;;;;5088987;28;20415;-79
2022/05/01 07:46:21;;;;;;;13.80;7.20;;;9.40;99.90;;;;;;5088644;28;20391;-77
2022/05/01 07:48:47;;;;;;;12.85;7.38;;;9.60;99.90;;;;;;5088351;28;20052;-78
2022/05/01 07:51:15;;;;;;;8.68;6.45;;;9.70;99.90;;;;;;5087274;28;20036;-78
2022/05/01 07:53:41;;;;;;;9.38;6.05;;;9.70;99.90;;;;;;5087138;28;20050;-78
2022/05/01 07:56:06;;;;;;;10.45;5.47;;;9.80;99.90;;;;;;5089048;28;20048;-78
2022/05/01 07:58:33;;;;;;;7.90;5.60;;;9.80;99.90;;;;;;5104814;28;20395;-80
2022/05/01 08:01:01;;;;;;;8.32;5.60;;;9.70;99.90;;;;;;5088166;28;20047;-76
2022/05/01 08:06:12;;;;;;;8.88;5.10;;;9.70;99.90;;;;;;5086807;28;20044;-76
2022/05/01 08:08:39;;;;;;;8.20;5.38;;;9.60;99.90;;;;;;5088018;28;20040;-77
2022/05/01 08:11:05;;;;;;;9.43;5.25;;;9.60;99.90;;;;;;5090282;28;20056;-80
2022/05/01 08:13:34;;;;;;;7.82;5.22;;;9.60;99.90;;;;;;5089056;28;20057;-82
2022/05/01 08:16:00;;;;;;;10.75;5.10;;;9.60;99.90;;;;;;5086149;28;20094;-80
2022/05/01 08:21:11;;;;;;;6.13;3.60;;;10.00;99.90;;;;;;5112011;28;20088;-91
2022/05/01 08:23:41;;;;;;;7.47;4.30;;;10.20;99.90;;;;;;5092779;28;20044;-88
2022/05/01 08:26:10;;;;;;;8.63;4.80;;;10.40;99.90;;;;;;5094348;28;20051;-86
2022/05/01 08:28:40;;;;;;;8.38;4.82;;;10.70;99.90;;;;;;5090824;28;20514;-84
2022/05/01 08:31:06;;;;;;;11.23;4.35;;;10.90;99.90;;;;;;5088873;28;20458;-83
2022/05/01 08:33:33;;;;;;;7.80;4.57;;;11.00;99.90;;;;;;5085855;28;20399;-88
2022/05/01 08:35:59;;;;;;;7.90;5.07;;;11.20;99.90;;;;;;5085377;28;20040;-83
2022/05/01 08:38:25;;;;;;;7.47;4.47;;;11.30;99.90;;;;;;5090370;28;20561;-84
2022/05/01 08:40:52;;;;;;;6.75;3.65;;;11.60;99.90;;;;;;5087977;28;20048;-83
2022/05/01 08:43:19;;;;;;;9.55;4.32;;;11.80;99.90;;;;;;5104422;28;20124;-75
2022/05/01 08:46:03;;;;;;;8.93;4.60;;;12.10;99.90;;;;;;5086950;28;20119;-77
2022/05/01 08:49:03;;;;;;;8.25;4.45;;;12.40;99.90;;;;;;5085101;28;20066;-76
2022/05/01 08:51:34;;;;;;;7.57;4.82;;;12.70;99.90;;;;;;5088264;28;20044;-75
2022/05/01 08:54:05;;;;;;;7.28;4.40;;;12.80;99.90;;;;;;5088868;28;20065;-71
2022/05/01 08:56:33;;;;;;;9.63;4.55;;;12.80;99.90;;;;;;5090112;28;20902;-72
2022/05/01 08:59:10;;;;;;;9.05;4.60;;;12.80;99.90;;;;;;5104495;28;20059;-72
2022/05/01 09:01:41;;;;;;;9.25;4.90;;;12.60;99.90;;;;;;5082650;28;20414;-72
2022/05/01 09:04:08;;;;;;;11.15;5.00;;;12.50;99.90;;;;;;5085231;28;20097;-71
2022/05/01 09:06:38;;;;;;;7.70;4.40;;;12.50;99.90;;;;;;5104817;28;20044;-72
2022/05/01 09:09:08;;;;;;;8.20;4.57;;;12.40;99.90;;;;;;5084059;28;20041;-71
2022/05/01 09:14:21;;;;;;;9.35;5.05;;;12.30;99.90;;;;;;5086917;28;20467;-72
2022/05/01 09:17:09;;;;;;;7.25;4.65;;;12.20;99.90;;;;;;5086801;28;20483;-72
2022/05/01 09:19:35;;;;;;;10.50;4.57;;;12.20;99.90;;;;;;5088627;28;20510;-72
2022/05/01 09:22:01;;;;;;;7.57;3.92;;;12.20;99.90;;;;;;5097693;28;20050;-72
2022/05/01 09:24:29;;;;;;;7.30;3.83;;;12.30;99.90;;;;;;5083219;28;20048;-72
2022/05/01 09:26:56;;;;;;;68.40;6.60;;;12.40;99.90;;;;;;5082293;28;20123;-71
2022/05/01 09:29:32;;;;;;;12.00;4.32;;;12.50;99.90;;;;;;5083522;28;20090;-72
2022/05/01 09:32:00;;;;;;;34.70;4.97;;;12.60;99.90;;;;;;5088133;28;20059;-71
2022/05/01 09:34:31;;;;;;;8.05;3.95;;;12.60;99.90;;;;;;5088453;28;20040;-71
2022/05/01 09:36:59;;;;;;;5.93;3.20;;;12.70;99.90;;;;;;5080629;28;20044;-71
2022/05/01 09:39:30;;;;;;;6.00;3.58;;;12.80;99.90;;;;;;5085197;28;20044;-79
2022/05/01 09:42:16;;;;;;;6.70;3.10;;;13.00;99.90;;;;;;5079057;28;20088;-76
2022/05/01 09:44:42;;;;;;;9.48;3.88;;;13.00;99.90;;;;;;5082015;28;20048;-78
2022/05/01 09:47:08;;;;;;;5.70;3.20;;;13.10;99.90;;;;;;5090787;28;20039;-77
2022/05/01 09:49:55;;;;;;;9.52;4.03;;;13.30;99.90;;;;;;5088629;28;20032;-79
2022/05/01 09:52:20;;;;;;;9.35;3.78;;;13.30;99.50;;;;;;5084409;28;20091;-78
2022/05/01 09:55:03;;;;;;;7.82;3.53;;;13.40;99.90;;;;;;5083428;28;20086;-77
2022/05/01 09:57:30;;;;;;;6.57;3.85;;;13.50;99.90;;;;;;5086740;28;20059;-79
2022/05/01 09:59:56;;;;;;;7.22;3.95;;;13.50;99.90;;;;;;5083718;28;20044;-80
2022/05/01 10:02:30;;;;;;;5.32;3.40;;;13.60;99.90;;;;;;5086516;28;20052;-85
2022/05/01 10:05:03;;;;;;;6.85;3.40;;;13.70;99.70;;;;;;5086951;28;20078;-81
2022/05/01 10:07:36;;;;;;;8.85;3.97;;;13.70;99.90;;;;;;5084092;28;20040;-80
2022/05/01 10:10:08;;;;;;;5.80;3.53;;;13.80;98.40;;;;;;5084897;28;20618;-81
2022/05/01 10:12:44;;;;;;;9.38;3.85;;;13.90;98.70;;;;;;5080778;28;21287;-81
2022/05/01 10:15:10;;;;;;;7.45;3.22;;;13.80;98.40;;;;;;5084628;28;20467;-81
2022/05/01 10:17:38;;;;;;;7.60;3.35;;;13.80;98.10;;;;;;5086345;28;20658;-82
2022/05/01 10:20:04;;;;;;;6.55;3.47;;;13.90;98.60;;;;;;5077130;28;20057;-81
2022/05/01 10:22:32;;;;;;;7.18;4.18;;;14.00;99.00;;;;;;5087550;28;20056;-81
2022/05/01 10:24:57;;;;;;;6.85;3.55;;;14.30;99.30;;;;;;5082850;28;20051;-81
2022/05/01 10:27:46;;;;;;;7.13;3.65;;;14.50;98.70;;;;;;5078813;28;20047;-80
2022/05/01 10:33:16;;;;;;;6.07;3.28;;;14.70;97.60;;;;;;5089579;28;20052;-81
2022/05/01 10:36:20;;;;;;;6.57;3.97;;;14.70;96.90;;;;;;5085735;28;20040;-80
2022/05/01 10:39:06;;;;;;;5.57;3.20;;;14.60;95.40;;;;;;5087144;28;20091;-80
2022/05/01 10:41:43;;;;;;;5.72;3.30;;;14.60;95.40;;;;;;5085821;28;20047;-80
2022/05/01 10:44:29;;;;;;;6.15;3.58;;;14.70;94.70;;;;;;5084416;28;20048;-81
2022/05/01 10:47:04;;;;;;;5.25;3.20;;;14.80;95.90;;;;;;5086277;28;20450;-81
2022/05/01 10:49:44;;;;;;;7.13;4.03;;;14.90;95.90;;;;;;5086286;28;20082;-82
2022/05/01 10:52:16;;;;;;;7.28;3.67;;;15.00;95.70;;;;;;5089166;28;20051;-82
2022/05/01 10:55:04;;;;;;;7.15;3.45;;;15.10;95.80;;;;;;5087663;28;20129;-83
2022/05/01 10:57:31;;;;;;;5.55;2.92;;;15.20;95.50;;;;;;5084911;28;20397;-87
2022/05/01 11:00:12;;;;;;;7.68;3.53;;;15.30;95.30;;;;;;5101233;28;20059;-86
2022/05/01 11:02:38;;;;;;;6.38;3.15;;;15.30;95.30;;;;;;5084252;28;20051;-85
2022/05/01 11:05:07;;;;;;;7.22;3.13;;;15.50;95.20;;;;;;5102119;28;20081;-85
2022/05/01 11:07:35;;;;;;;6.75;3.75;;;15.60;94.70;;;;;;5085004;28;20046;-90
2022/05/01 11:10:04;;;;;;;7.53;2.95;;;15.60;94.30;;;;;;5080961;28;20088;-85
2022/05/01 11:12:32;;;;;;;6.80;2.90;;;15.60;93.30;;;;;;5088302;28;20552;-83
2022/05/01 11:14:59;;;;;;;6.32;3.10;;;15.60;92.10;;;;;;5090810;28;20109;-83
2022/05/01 11:17:39;;;;;;;6.68;3.40;;;15.50;93.30;;;;;;5086625;28;20036;-81
2022/05/01 11:20:25;;;;;;;6.20;3.83;;;15.50;93.20;;;;;;5103874;28;20055;-81
2022/05/01 11:22:51;;;;;;;6.22;3.10;;;15.50;92.60;;;;;;5081769;28;20048;-81
2022/05/01 11:25:18;;;;;;;5.35;3.28;;;15.50;93.80;;;;;;5108401;28;20438;-81
2022/05/01 11:27:48;;;;;;;6.55;3.75;;;15.50;93.30;;;;;;5092871;28;20036;-81
2022/05/01 11:30:22;;;;;;;4.45;2.95;;;15.60;93.10;;;;;;5094119;28;20106;-81
2022/05/01 11:32:50;;;;;;;7.93;3.30;;;15.70;93.00;;;;;;5092623;28;20032;-81
2022/05/01 11:35:17;;;;;;;6.13;3.55;;;15.60;93.40;;;;;;5091693;28;20101;-81
2022/05/01 11:38:06;;;;;;;6.00;3.35;;;15.70;92.60;;;;;;5090214;28;20048;-81
2022/05/01 11:40:31;;;;;;;7.35;3.25;;;15.60;92.60;;;;;;5092407;28;20043;-81
2022/05/01 11:43:15;;;;;;;5.70;3.60;;;15.60;93.10;;;;;;5091090;28;20089;-81
2022/05/01 11:45:41;;;;;;;7.18;3.50;;;15.60;92.50;;;;;;5083998;28;20059;-81
2022/05/01 11:48:12;;;;;;;5.50;3.03;;;15.60;91.30;;;;;;5092383;28;20043;-81
2022/05/01 11:50:39;;;;;;;5.47;3.15;;;15.60;91.00;;;;;;5091367;28;20043;-81
2022/05/01 11:53:15;;;;;;;5.53;3.05;;;15.60;91.60;;;;;;5092162;28;20147;-81
2022/05/01 12:04:22;;;;;;;5.38;3.00;;;16.10;91.90;;;;;;5093923;28;20100;-81
2022/05/01 12:06:47;;;;;;;6.53;3.20;;;16.20;91.70;;;;;;5079477;28;20048;-81
2022/05/01 12:09:17;;;;;;;5.50;2.97;;;16.40;91.20;;;;;;5093381;28;20055;-81
2022/05/01 12:11:46;;;;;;;5.22;3.10;;;16.50;85.90;;;;;;5093509;28;20040;-81
2022/05/01 12:14:13;;;;;;;6.07;3.45;;;16.40;89.00;;;;;;5092674;28;20059;-81
2022/05/01 12:16:40;;;;;;;5.35;3.42;;;16.50;90.40;;;;;;5093736;28;20046;-81
2022/05/01 12:19:06;;;;;;;5.22;3.00;;;16.50;87.90;;;;;;5091948;28;20193;-81
2022/05/01 12:21:33;;;;;;;4.65;2.92;;;16.50;88.10;;;;;;5090888;28;20070;-81
2022/05/01 12:24:04;;;;;;;4.93;3.08;;;16.50;87.80;;;;;;5088803;28;20047;-81
2022/05/01 12:26:31;;;;;;;5.32;3.58;;;16.50;89.30;;;;;;5092106;28;20440;-82
2022/05/01 12:28:57;;;;;;;5.43;3.20;;;16.50;90.80;;;;;;5093306;28;20487;-81
2022/05/01 12:31:23;;;;;;;5.25;3.00;;;16.50;91.10;;;;;;5091255;28;20029;-81
2022/05/01 12:33:52;;;;;;;9.45;3.10;;;16.40;90.50;;;;;;5092442;28;20487;-81
2022/05/01 12:36:25;;;;;;;8.52;3.75;;;16.30;89.50;;;;;;5093181;28;20032;-81
2022/05/01 12:39:01;;;;;;;7.97;3.55;;;16.20;85.60;;;;;;5092166;28;20483;-81
2022/05/01 12:44:12;;;;;;;6.28;3.13;;;16.00;90.40;;;;;;5091837;28;20052;-81
2022/05/01 12:46:39;;;;;;;6.20;2.72;;;16.10;90.30;;;;;;5089209;28;20055;-81
2022/05/01 12:49:05;;;;;;;6.60;3.13;;;16.10;90.20;;;;;;5092188;28;20399;-81
2022/05/01 12:51:41;;;;;;;5.28;2.67;;;16.20;90.40;;;;;;5091977;28;20511;-81
2022/05/01 12:54:18;;;;;;;5.13;2.88;;;16.30;87.70;;;;;;5092454;28;20511;-81
2022/05/01 12:56:45;;;;;;;6.65;2.70;;;16.50;88.50;;;;;;5091708;28;20395;-82
2022/05/01 12:59:29;;;;;;;6.45;2.70;;;16.70;88.80;;;;;;5091797;28;20071;-81
2022/05/01 13:01:57;;;;;;;4.30;2.67;;;17.00;87.00;;;;;;5084915;28;20043;-81
2022/05/01 13:04:24;;;;;;;5.30;2.78;;;17.10;82.00;;;;;;5092774;28;20347;-82
2022/05/01 13:06:50;;;;;;;6.05;2.58;;;17.20;83.10;;;;;;5084167;28;20133;-82
2022/05/01 13:09:16;;;;;;;6.35;2.75;;;17.30;84.90;;;;;;5091796;28;20050;-82
2022/05/01 13:12:02;;;;;;;5.22;2.55;;;17.40;85.30;;;;;;5091898;28;20043;-81
2022/05/01 13:14:32;;;;;;;5.50;2.67;;;17.50;84.30;;;;;;5091868;28;20043;-82
2022/05/01 13:17:11;;;;;;;5.03;2.88;;;17.40;85.00;;;;;;5090215;28;20054;-81
2022/05/01 13:19:38;;;;;;;5.65;2.65;;;17.40;86.00;;;;;;5091797;28;20044;-81
2022/05/01 13:22:06;;;;;;;5.32;2.60;;;17.30;87.20;;;;;;5092147;28;20541;-81